Alstead Center, New Hampshire
Current Conditions -  °F | °C
As of 3:35 AM on Sunday 26 Oct 2014 (Local Time) from KEEN Reporting Station
Broken Clouds Broken Clouds  
Wind Chill: 43°   Ceiling: 100
Heat Index: 43°   Visibility: 0.5mi
Dew Point: 34°   Wind: 0mph
Humidity: 70%   Direction: NA
Pressure: 29.46"   Gusts: NA
Location:  43.1141°N, 72.3097°W
Report Text: KEEN 260735Z AUTO 00000KT 1/2SM BKN001 06/01 A2946 RMK AO1
Loading
Personal Weather Stations






























Interactive Weather Map
Tropical Storm Tracking
New forecast layout! Learn more

10-Day Weather Forecast

Advertisements
Track Severe Weather on mobile